sensor_id;sensor_type;location;lat;lon;timestamp;pressure;altitude;pressure_sealevel;temperature;humidity
71795;BME280;59641;45.188;5.712;2024-02-21T00:02:07;100400.56;;;13.24;48.91
71795;BME280;59641;45.188;5.712;2024-02-21T00:04:33;100402.88;;;13.20;48.99
71795;BME280;59641;45.188;5.712;2024-02-21T00:06:59;100414.47;;;13.21;49.05
71795;BME280;59641;45.188;5.712;2024-02-21T00:09:24;100411.78;;;13.21;49.06
71795;BME280;59641;45.188;5.712;2024-02-21T00:11:49;100402.00;;;13.20;48.95
71795;BME280;59641;45.188;5.712;2024-02-21T00:14:15;100401.38;;;13.18;48.78
71795;BME280;59641;45.188;5.712;2024-02-21T00:16:41;100400.56;;;13.17;48.68
71795;BME280;59641;45.188;5.712;2024-02-21T00:19:06;100402.63;;;13.15;49.10
71795;BME280;59641;45.188;5.712;2024-02-21T00:21:31;100406.19;;;13.16;48.86
71795;BME280;59641;45.188;5.712;2024-02-21T00:23:56;100406.38;;;13.14;48.94
71795;BME280;59641;45.188;5.712;2024-02-21T00:26:22;100399.34;;;13.13;48.94
71795;BME280;59641;45.188;5.712;2024-02-21T00:28:47;100398.50;;;13.13;49.22
71795;BME280;59641;45.188;5.712;2024-02-21T00:31:13;100404.94;;;13.12;48.95
71795;BME280;59641;45.188;5.712;2024-02-21T00:33:38;100403.31;;;13.11;48.99
71795;BME280;59641;45.188;5.712;2024-02-21T00:36:04;100408.69;;;13.11;49.13
71795;BME280;59641;45.188;5.712;2024-02-21T00:38:29;100403.69;;;13.08;49.29
71795;BME280;59641;45.188;5.712;2024-02-21T00:40:54;100397.50;;;13.07;49.07
71795;BME280;59641;45.188;5.712;2024-02-21T00:43:20;100397.69;;;13.06;49.32
71795;BME280;59641;45.188;5.712;2024-02-21T00:45:48;100393.97;;;13.07;49.16
71795;BME280;59641;45.188;5.712;2024-02-21T00:48:14;100389.59;;;13.06;49.27
71795;BME280;59641;45.188;5.712;2024-02-21T00:50:39;100389.59;;;13.06;49.37
71795;BME280;59641;45.188;5.712;2024-02-21T00:53:05;100379.88;;;13.05;49.02
71795;BME280;59641;45.188;5.712;2024-02-21T00:55:30;100377.44;;;12.96;48.92
71795;BME280;59641;45.188;5.712;2024-02-21T00:57:55;100377.84;;;12.87;49.19
71795;BME280;59641;45.188;5.712;2024-02-21T01:00:20;100363.97;;;12.76;49.43
71795;BME280;59641;45.188;5.712;2024-02-21T01:02:46;100360.47;;;12.76;49.60
71795;BME280;59641;45.188;5.712;2024-02-21T01:05:11;100366.03;;;12.74;49.91
71795;BME280;59641;45.188;5.712;2024-02-21T01:07:36;100369.59;;;12.75;49.94
71795;BME280;59641;45.188;5.712;2024-02-21T01:10:02;100359.41;;;12.77;50.16
71795;BME280;59641;45.188;5.712;2024-02-21T01:12:27;100355.69;;;12.78;50.07
71795;BME280;59641;45.188;5.712;2024-02-21T01:14:53;100346.56;;;12.79;50.21
71795;BME280;59641;45.188;5.712;2024-02-21T01:17:18;100346.38;;;12.81;50.10
71795;BME280;59641;45.188;5.712;2024-02-21T01:19:46;100341.59;;;12.83;50.07
71795;BME280;59641;45.188;5.712;2024-02-21T01:22:11;100331.66;;;12.83;49.79
71795;BME280;59641;45.188;5.712;2024-02-21T01:24:37;100316.31;;;12.84;49.69
71795;BME280;59641;45.188;5.712;2024-02-21T01:27:02;100317.56;;;12.81;49.85
71795;BME280;59641;45.188;5.712;2024-02-21T01:29:28;100322.56;;;12.77;50.00
71795;BME280;59641;45.188;5.712;2024-02-21T01:31:53;100320.06;;;12.76;49.75
71795;BME280;59641;45.188;5.712;2024-02-21T01:34:18;100320.88;;;12.76;49.96
71795;BME280;59641;45.188;5.712;2024-02-21T01:36:44;100313.63;;;12.77;49.90
71795;BME280;59641;45.188;5.712;2024-02-21T01:39:09;100318.00;;;12.78;49.80
71795;BME280;59641;45.188;5.712;2024-02-21T01:41:34;100304.97;;;12.75;49.74
71795;BME280;59641;45.188;5.712;2024-02-21T01:43:59;100311.78;;;12.71;49.89
71795;BME280;59641;45.188;5.712;2024-02-21T01:46:25;100309.72;;;12.66;49.91
71795;BME280;59641;45.188;5.712;2024-02-21T01:48:56;100311.81;;;12.64;50.28
71795;BME280;59641;45.188;5.712;2024-02-21T01:51:23;100305.41;;;12.65;49.97
71795;BME280;59641;45.188;5.712;2024-02-21T01:53:50;100297.72;;;12.69;50.10
71795;BME280;59641;45.188;5.712;2024-02-21T01:56:17;100291.69;;;12.67;49.82
71795;BME280;59641;45.188;5.712;2024-02-21T01:58:42;100292.75;;;12.66;50.05
71795;BME280;59641;45.188;5.712;2024-02-21T02:01:10;100299.78;;;12.67;49.93
71795;BME280;59641;45.188;5.712;2024-02-21T02:03:35;100296.88;;;12.68;50.03
71795;BME280;59641;45.188;5.712;2024-02-21T02:06:02;100292.94;;;12.71;49.92
71795;BME280;59641;45.188;5.712;2024-02-21T02:08:27;100303.50;;;12.72;49.77
71795;BME280;59641;45.188;5.712;2024-02-21T02:10:53;100301.84;;;12.71;49.70
71795;BME280;59641;45.188;5.712;2024-02-21T02:13:18;100292.94;;;12.71;49.70
71795;BME280;59641;45.188;5.712;2024-02-21T02:15:45;100289.44;;;12.70;49.79
71795;BME280;59641;45.188;5.712;2024-02-21T02:18:12;100283.41;;;12.68;49.77
71795;BME280;59641;45.188;5.712;2024-02-21T02:20:38;100287.38;;;12.66;49.95
71795;BME280;59641;45.188;5.712;2024-02-21T02:25:51;100299.19;;;12.58;49.74
71795;BME280;59641;45.188;5.712;2024-02-21T02:28:17;100296.91;;;12.55;49.66
71795;BME280;59641;45.188;5.712;2024-02-21T02:30:43;100274.53;;;12.48;49.73
71795;BME280;59641;45.188;5.712;2024-02-21T02:33:09;100276.84;;;12.44;49.82
71795;BME280;59641;45.188;5.712;2024-02-21T02:35:35;100273.97;;;12.39;50.06
71795;BME280;59641;45.188;5.712;2024-02-21T02:38:03;100281.22;;;12.32;49.94
71795;BME280;59641;45.188;5.712;2024-02-21T02:40:29;100280.16;;;12.26;50.34
71795;BME280;59641;45.188;5.712;2024-02-21T02:42:54;100276.66;;;12.26;50.48
71795;BME280;59641;45.188;5.712;2024-02-21T02:45:21;100262.19;;;12.27;50.65
71795;BME280;59641;45.188;5.712;2024-02-21T02:47:47;100272.72;;;12.28;50.62
71795;BME280;59641;45.188;5.712;2024-02-21T02:50:13;100272.50;;;12.30;50.65
71795;BME280;59641;45.188;5.712;2024-02-21T02:52:39;100276.03;;;12.30;50.44
71795;BME280;59641;45.188;5.712;2024-02-21T02:55:05;100256.38;;;12.30;50.84
71795;BME280;59641;45.188;5.712;2024-02-21T02:57:31;100259.69;;;12.32;50.84
71795;BME280;59641;45.188;5.712;2024-02-21T02:59:56;100259.44;;;12.33;50.57
71795;BME280;59641;45.188;5.712;2024-02-21T03:02:22;100254.06;;;12.33;50.62
71795;BME280;59641;45.188;5.712;2024-02-21T03:04:48;100252.00;;;12.35;50.46
71795;BME280;59641;45.188;5.712;2024-02-21T03:07:14;100254.69;;;12.35;50.64
71795;BME280;59641;45.188;5.712;2024-02-21T03:09:40;100253.69;;;12.36;50.59
71795;BME280;59641;45.188;5.712;2024-02-21T03:12:08;100242.28;;;12.34;50.36
71795;BME280;59641;45.188;5.712;2024-02-21T03:14:33;100236.28;;;12.32;50.53
71795;BME280;59641;45.188;5.712;2024-02-21T03:16:59;100238.78;;;12.34;50.56
71795;BME280;59641;45.188;5.712;2024-02-21T03:19:24;100236.69;;;12.36;50.75
71795;BME280;59641;45.188;5.712;2024-02-21T03:21:50;100228.41;;;12.38;50.59
71795;BME280;59641;45.188;5.712;2024-02-21T03:24:16;100226.34;;;12.40;50.89
71795;BME280;59641;45.188;5.712;2024-02-21T03:26:41;100226.97;;;12.42;50.90
71795;BME280;59641;45.188;5.712;2024-02-21T03:29:07;100223.84;;;12.45;50.69
71795;BME280;59641;45.188;5.712;2024-02-21T03:31:34;100220.09;;;12.46;50.86
71795;BME280;59641;45.188;5.712;2024-02-21T03:33:59;100223.63;;;12.46;50.70
71795;BME280;59641;45.188;5.712;2024-02-21T03:36:24;100222.59;;;12.47;50.56
71795;BME280;59641;45.188;5.712;2024-02-21T03:38:50;100213.69;;;12.47;50.69
71795;BME280;59641;45.188;5.712;2024-02-21T03:41:15;100217.41;;;12.46;50.46
71795;BME280;59641;45.188;5.712;2024-02-21T03:43:40;100214.50;;;12.47;50.67
71795;BME280;59641;45.188;5.712;2024-02-21T03:46:06;100208.91;;;12.49;50.67
71795;BME280;59641;45.188;5.712;2024-02-21T03:48:32;100201.66;;;12.49;50.68
71795;BME280;59641;45.188;5.712;2024-02-21T03:50:58;100193.59;;;12.49;50.78
71795;BME280;59641;45.188;5.712;2024-02-21T03:53:23;100201.66;;;12.49;50.73
71795;BME280;59641;45.188;5.712;2024-02-21T03:55:48;100193.38;;;12.51;50.88
71795;BME280;59641;45.188;5.712;2024-02-21T03:58:14;100200.63;;;12.50;50.99
71795;BME280;59641;45.188;5.712;2024-02-21T04:00:39;100191.72;;;12.50;50.81
71795;BME280;59641;45.188;5.712;2024-02-21T04:03:04;100200.84;;;12.49;50.77
71795;BME280;59641;45.188;5.712;2024-02-21T04:05:30;100198.34;;;12.47;50.62
71795;BME280;59641;45.188;5.712;2024-02-21T04:07:56;100202.09;;;12.46;50.55
71795;BME280;59641;45.188;5.712;2024-02-21T04:10:21;100196.91;;;12.45;50.37
71795;BME280;59641;45.188;5.712;2024-02-21T04:12:47;100199.00;;;12.43;50.41
71795;BME280;59641;45.188;5.712;2024-02-21T04:15:15;100202.94;;;12.40;50.62
71795;BME280;59641;45.188;5.712;2024-02-21T04:17:41;100207.50;;;12.40;50.71
71795;BME280;59641;45.188;5.712;2024-02-21T04:20:13;100201.91;;;12.34;50.44
71795;BME280;59641;45.188;5.712;2024-02-21T04:22:38;100196.53;;;12.28;50.77
71795;BME280;59641;45.188;5.712;2024-02-21T04:25:04;100203.78;;;12.27;51.04
71795;BME280;59641;45.188;5.712;2024-02-21T04:27:29;100203.78;;;12.27;51.04
71795;BME280;59641;45.188;5.712;2024-02-21T04:29:54;100202.13;;;12.26;50.92
71795;BME280;59641;45.188;5.712;2024-02-21T04:32:20;100200.06;;;12.28;50.87
71795;BME280;59641;45.188;5.712;2024-02-21T04:34:45;100198.19;;;12.29;51.09
71795;BME280;59641;45.188;5.712;2024-02-21T04:37:10;100210.63;;;12.30;50.83
71795;BME280;59641;45.188;5.712;2024-02-21T04:39:36;100201.09;;;12.27;50.80
71795;BME280;59641;45.188;5.712;2024-02-21T04:42:01;100203.38;;;12.24;50.78
71795;BME280;59641;45.188;5.712;2024-02-21T04:44:26;100192.22;;;12.20;50.96
71795;BME280;59641;45.188;5.712;2024-02-21T04:46:52;100191.81;;;12.17;51.37
71795;BME280;59641;45.188;5.712;2024-02-21T04:49:17;100192.66;;;12.17;51.17
71795;BME280;59641;45.188;5.712;2024-02-21T04:51:42;100191.59;;;12.18;51.42
71795;BME280;59641;45.188;5.712;2024-02-21T04:54:08;100188.72;;;12.20;51.45
71795;BME280;59641;45.188;5.712;2024-02-21T04:56:34;100179.59;;;12.21;51.25
71795;BME280;59641;45.188;5.712;2024-02-21T04:58:59;100179.59;;;12.21;51.08
71795;BME280;59641;45.188;5.712;2024-02-21T05:01:24;100176.50;;;12.17;51.23
71795;BME280;59641;45.188;5.712;2024-02-21T05:03:50;100171.94;;;12.18;51.33
71795;BME280;59641;45.188;5.712;2024-02-21T05:06:15;100175.47;;;12.18;51.15
71795;BME280;59641;45.188;5.712;2024-02-21T05:08:40;100170.91;;;12.19;51.28
71795;BME280;59641;45.188;5.712;2024-02-21T05:11:06;100166.34;;;12.19;51.30
71795;BME280;59641;45.188;5.712;2024-02-21T05:13:32;100159.69;;;12.22;51.04
71795;BME280;59641;45.188;5.712;2024-02-21T05:15:57;100160.56;;;12.22;51.04
71795;BME280;59641;45.188;5.712;2024-02-21T05:18:26;100157.88;;;12.22;51.23
71795;BME280;59641;45.188;5.712;2024-02-21T05:20:52;100151.44;;;12.23;51.42
71795;BME280;59641;45.188;5.712;2024-02-21T05:23:17;100149.78;;;12.22;50.96
71795;BME280;59641;45.188;5.712;2024-02-21T05:25:42;100153.50;;;12.21;50.95
71795;BME280;59641;45.188;5.712;2024-02-21T05:28:08;100145.84;;;12.18;51.25
71795;BME280;59641;45.188;5.712;2024-02-21T05:30:33;100147.94;;;12.16;51.07
71795;BME280;59641;45.188;5.712;2024-02-21T05:32:58;100141.53;;;12.10;51.13
71795;BME280;59641;45.188;5.712;2024-02-21T05:35:28;100131.81;;;12.09;51.56
71795;BME280;59641;45.188;5.712;2024-02-21T05:37:53;100137.19;;;12.09;51.53
71795;BME280;59641;45.188;5.712;2024-02-21T05:40:19;100136.97;;;12.11;51.32
71795;BME280;59641;45.188;5.712;2024-02-21T05:42:44;100140.28;;;12.13;51.62
71795;BME280;59641;45.188;5.712;2024-02-21T05:45:09;100139.03;;;12.15;51.31
71795;BME280;59641;45.188;5.712;2024-02-21T05:47:35;100124.16;;;12.13;51.25
71795;BME280;59641;45.188;5.712;2024-02-21T05:50:00;100117.94;;;12.12;51.46
71795;BME280;59641;45.188;5.712;2024-02-21T05:52:25;100117.31;;;12.10;51.30
71795;BME280;59641;45.188;5.712;2024-02-21T05:54:51;100122.91;;;12.09;51.52
71795;BME280;59641;45.188;5.712;2024-02-21T05:57:17;100123.09;;;12.07;51.58
71795;BME280;59641;45.188;5.712;2024-02-21T05:59:43;100120.22;;;12.09;51.53
71795;BME280;59641;45.188;5.712;2024-02-21T06:02:09;100125.41;;;12.10;51.51
71795;BME280;59641;45.188;5.712;2024-02-21T06:04:34;100124.56;;;12.10;51.72
71795;BME280;59641;45.188;5.712;2024-02-21T06:07:00;100131.81;;;12.09;51.68
71795;BME280;59641;45.188;5.712;2024-02-21T06:09:25;100120.03;;;12.10;51.78
71795;BME280;59641;45.188;5.712;2024-02-21T06:11:50;100115.25;;;12.12;51.69
71795;BME280;59641;45.188;5.712;2024-02-21T06:14:16;100120.41;;;12.14;51.62
71795;BME280;59641;45.188;5.712;2024-02-21T06:16:43;100118.34;;;12.16;51.98
71795;BME280;59641;45.188;5.712;2024-02-21T06:19:08;100118.34;;;12.16;51.53
71795;BME280;59641;45.188;5.712;2024-02-21T06:21:34;100116.69;;;12.15;51.48
71795;BME280;59641;45.188;5.712;2024-02-21T06:23:59;100114.03;;;12.08;51.47
71795;BME280;59641;45.188;5.712;2024-02-21T06:26:25;100122.53;;;12.05;51.48
71795;BME280;59641;45.188;5.712;2024-02-21T06:28:50;100127.28;;;12.03;51.71
71795;BME280;59641;45.188;5.712;2024-02-21T06:31:15;100131.84;;;12.03;51.57
71795;BME280;59641;45.188;5.712;2024-02-21T06:33:41;100129.16;;;12.03;51.79
71795;BME280;59641;45.188;5.712;2024-02-21T06:36:07;100137.41;;;12.01;51.49
71795;BME280;59641;45.188;5.712;2024-02-21T06:38:32;100140.31;;;12.00;51.86
71795;BME280;59641;45.188;5.712;2024-02-21T06:40:59;100143.84;;;12.00;51.76
71795;BME280;59641;45.188;5.712;2024-02-21T06:43:25;100149.81;;;12.02;51.82
71795;BME280;59641;45.188;5.712;2024-02-21T06:45:51;100147.97;;;12.03;51.86
71795;BME280;59641;45.188;5.712;2024-02-21T06:48:19;100148.38;;;12.06;51.61
71795;BME280;59641;45.188;5.712;2024-02-21T06:50:45;100158.69;;;12.09;51.65
71795;BME280;59641;45.188;5.712;2024-02-21T06:53:10;100159.56;;;12.10;51.63
71795;BME280;59641;45.188;5.712;2024-02-21T06:55:36;100153.13;;;12.11;51.74
71795;BME280;59641;45.188;5.712;2024-02-21T06:58:01;100159.31;;;12.11;51.34
71795;BME280;59641;45.188;5.712;2024-02-21T07:00:28;100166.38;;;12.12;51.44
71795;BME280;59641;45.188;5.712;2024-02-21T07:02:53;100159.75;;;12.08;51.62
71795;BME280;59641;45.188;5.712;2024-02-21T07:05:19;100162.25;;;12.10;51.64
71795;BME280;59641;45.188;5.712;2024-02-21T07:07:44;100170.09;;;12.11;51.66
71795;BME280;59641;45.188;5.712;2024-02-21T07:10:09;100171.75;;;12.12;51.67
71795;BME280;59641;45.188;5.712;2024-02-21T07:12:36;100170.91;;;12.12;51.88
71795;BME280;59641;45.188;5.712;2024-02-21T07:15:04;100167.41;;;12.11;51.51
71795;BME280;59641;45.188;5.712;2024-02-21T07:17:29;100172.16;;;12.09;51.53
71795;BME280;59641;45.188;5.712;2024-02-21T07:19:55;100178.38;;;12.10;51.86
71795;BME280;59641;45.188;5.712;2024-02-21T07:22:22;100180.84;;;12.11;51.65
71795;BME280;59641;45.188;5.712;2024-02-21T07:24:47;100183.75;;;12.10;51.50
71795;BME280;59641;45.188;5.712;2024-02-21T07:27:15;100177.34;;;12.04;51.78
71795;BME280;59641;45.188;5.712;2024-02-21T07:29:40;100180.03;;;11.98;51.58
71795;BME280;59641;45.188;5.712;2024-02-21T07:32:06;100175.50;;;11.91;51.58
71795;BME280;59641;45.188;5.712;2024-02-21T07:34:31;100181.91;;;11.84;51.89
71795;BME280;59641;45.188;5.712;2024-02-21T07:36:57;100187.88;;;11.72;51.66
71795;BME280;59641;45.188;5.712;2024-02-21T07:39:22;100191.00;;;11.63;52.00
71795;BME280;59641;45.188;5.712;2024-02-21T07:41:48;100191.19;;;11.61;52.06
71795;BME280;59641;45.188;5.712;2024-02-21T07:44:17;100194.72;;;11.62;52.34
71795;BME280;59641;45.188;5.712;2024-02-21T07:46:42;100194.50;;;11.57;52.36
71795;BME280;59641;45.188;5.712;2024-02-21T07:49:07;100200.50;;;11.59;52.30
71795;BME280;59641;45.188;5.712;2024-02-21T07:51:33;100197.81;;;11.52;52.35
71795;BME280;59641;45.188;5.712;2024-02-21T07:54:00;100192.84;;;11.49;52.41
71795;BME280;59641;45.188;5.712;2024-02-21T07:56:27;100200.28;;;11.47;52.55
71795;BME280;59641;45.188;5.712;2024-02-21T07:58:53;100189.75;;;11.45;52.52
71795;BME280;59641;45.188;5.712;2024-02-21T08:01:19;100188.50;;;11.48;52.68
71795;BME280;59641;45.188;5.712;2024-02-21T08:03:47;100189.13;;;11.50;52.59
71795;BME280;59641;45.188;5.712;2024-02-21T08:06:13;100191.41;;;11.53;52.84
71795;BME280;59641;45.188;5.712;2024-02-21T08:08:38;100183.75;;;11.57;52.64
71795;BME280;59641;45.188;5.712;2024-02-21T08:11:04;100184.16;;;11.60;52.91
71795;BME280;59641;45.188;5.712;2024-02-21T08:13:29;100181.06;;;11.63;52.65
71795;BME280;59641;45.188;5.712;2024-02-21T08:15:55;100189.75;;;11.65;52.48
71795;BME280;59641;45.188;5.712;2024-02-21T08:18:20;100186.00;;;11.66;52.43
71795;BME280;59641;45.188;5.712;2024-02-21T08:20:45;100180.63;;;11.66;52.50
71795;BME280;59641;45.188;5.712;2024-02-21T08:23:11;100193.06;;;11.61;52.34
71795;BME280;59641;45.188;5.712;2024-02-21T08:25:36;100186.44;;;11.57;52.25
71795;BME280;59641;45.188;5.712;2024-02-21T08:28:01;100190.59;;;11.52;52.88
71795;BME280;59641;45.188;5.712;2024-02-21T08:30:27;100193.91;;;11.55;52.44
71795;BME280;59641;45.188;5.712;2024-02-21T08:32:52;100197.19;;;11.57;52.70
71795;BME280;59641;45.188;5.712;2024-02-21T08:35:19;100193.06;;;11.61;52.55
71795;BME280;59641;45.188;5.712;2024-02-21T08:37:46;100194.09;;;11.66;52.90
71795;BME280;59641;45.188;5.712;2024-02-21T08:40:13;100194.09;;;11.73;52.70
71795;BME280;59641;45.188;5.712;2024-02-21T08:42:39;100188.31;;;11.76;52.60
71795;BME280;59641;45.188;5.712;2024-02-21T08:45:04;100184.16;;;11.80;52.44
71795;BME280;59641;45.188;5.712;2024-02-21T08:47:30;100181.03;;;11.83;52.58
71795;BME280;59641;45.188;5.712;2024-02-21T08:49:56;100177.16;;;11.86;52.20
71795;BME280;59641;45.188;5.712;2024-02-21T08:52:21;100184.00;;;11.88;52.43
71795;BME280;59641;45.188;5.712;2024-02-21T08:54:46;100169.94;;;11.93;52.64
71795;BME280;59641;45.188;5.712;2024-02-21T08:57:12;100176.94;;;12.01;52.69
71795;BME280;59641;45.188;5.712;2024-02-21T08:59:39;100172.78;;;12.11;52.54
71795;BME280;59641;45.188;5.712;2024-02-21T09:02:04;100170.06;;;12.18;52.15
71795;BME280;59641;45.188;5.712;2024-02-21T09:04:30;100166.31;;;12.26;51.97
71795;BME280;59641;45.188;5.712;2024-02-21T09:06:56;100162.38;;;12.28;51.91
71795;BME280;59641;45.188;5.712;2024-02-21T09:09:21;100162.81;;;12.32;51.89
71795;BME280;59641;45.188;5.712;2024-02-21T09:11:46;100158.44;;;12.38;51.92
71795;BME280;59641;45.188;5.712;2024-02-21T09:14:12;100152.41;;;12.42;51.74
71795;BME280;59641;45.188;5.712;2024-02-21T09:16:37;100157.97;;;12.47;51.92
71795;BME280;59641;45.188;5.712;2024-02-21T09:19:02;100143.06;;;12.51;51.73
71795;BME280;59641;45.188;5.712;2024-02-21T09:21:28;100145.31;;;12.54;51.66
71795;BME280;59641;45.188;5.712;2024-02-21T09:23:53;100148.63;;;12.56;51.54
71795;BME280;59641;45.188;5.712;2024-02-21T09:26:19;100148.44;;;12.58;51.49
71795;BME280;59641;45.188;5.712;2024-02-21T09:28:45;100148.81;;;12.62;51.32
71795;BME280;59641;45.188;5.712;2024-02-21T09:31:10;100141.97;;;12.66;51.38
71795;BME280;59641;45.188;5.712;2024-02-21T09:33:35;100142.16;;;12.71;51.26
71795;BME280;59641;45.188;5.712;2024-02-21T09:36:02;100137.13;;;12.74;51.09
71795;BME280;59641;45.188;5.712;2024-02-21T09:38:27;100145.84;;;12.76;51.21
71795;BME280;59641;45.188;5.712;2024-02-21T09:41:15;100146.44;;;12.78;50.70
71795;BME280;59641;45.188;5.712;2024-02-21T09:43:44;100141.94;;;12.72;50.60
71795;BME280;59641;45.188;5.712;2024-02-21T09:46:16;100141.31;;;12.70;50.52
71795;BME280;59641;45.188;5.712;2024-02-21T09:49:03;100140.06;;;12.73;50.60
71795;BME280;59641;45.188;5.712;2024-02-21T09:51:32;100137.13;;;12.74;50.57
71795;BME280;59641;45.188;5.712;2024-02-21T09:53:59;100132.97;;;12.78;50.69
71795;BME280;59641;45.188;5.712;2024-02-21T09:56:25;100139.38;;;12.84;50.37
71795;BME280;59641;45.188;5.712;2024-02-21T09:58:50;100147.69;;;12.83;50.30
71795;BME280;59641;45.188;5.712;2024-02-21T10:01:16;100138.53;;;12.84;50.33
71795;BME280;59641;45.188;5.712;2024-02-21T10:03:41;100130.03;;;12.87;50.45
71795;BME280;59641;45.188;5.712;2024-02-21T10:06:08;100124.22;;;12.90;50.07
71795;BME280;59641;45.188;5.712;2024-02-21T10:08:34;100120.03;;;12.94;50.43
71795;BME280;59641;45.188;5.712;2024-02-21T10:10:59;100119.38;;;12.98;50.04
71795;BME280;59641;45.188;5.712;2024-02-21T10:13:27;100111.09;;;13.00;49.83
71795;BME280;59641;45.188;5.712;2024-02-21T10:16:06;100112.94;;;13.06;49.78
71795;BME280;59641;45.188;5.712;2024-02-21T10:18:33;100108.97;;;13.09;49.96
71795;BME280;59641;45.188;5.712;2024-02-21T10:21:06;100112.47;;;13.16;50.00
71795;BME280;59641;45.188;5.712;2024-02-21T10:23:48;100103.72;;;13.20;49.74
71795;BME280;59641;45.188;5.712;2024-02-21T10:26:17;100103.28;;;13.24;49.58
71795;BME280;59641;45.188;5.712;2024-02-21T10:28:42;100096.63;;;13.26;49.31
71795;BME280;59641;45.188;5.712;2024-02-21T10:31:11;100097.41;;;13.33;49.23
71795;BME280;59641;45.188;5.712;2024-02-21T10:33:39;100089.94;;;13.35;49.37
71795;BME280;59641;45.188;5.712;2024-02-21T10:36:09;100086.78;;;13.38;49.33
71795;BME280;59641;45.188;5.712;2024-02-21T10:38:38;100084.72;;;13.40;49.28
71795;BME280;59641;45.188;5.712;2024-02-21T10:41:07;100084.25;;;13.43;49.05
71795;BME280;59641;45.188;5.712;2024-02-21T10:43:39;100080.53;;;13.45;49.10
71795;BME280;59641;45.188;5.712;2024-02-21T10:46:08;100074.69;;;13.48;48.81
71795;BME280;59641;45.188;5.712;2024-02-21T10:48:44;100069.25;;;13.54;49.09
71795;BME280;59641;45.188;5.712;2024-02-21T10:51:18;100059.22;;;13.61;48.67
71795;BME280;59641;45.188;5.712;2024-02-21T10:53:50;100054.84;;;13.60;48.73
71795;BME280;59641;45.188;5.712;2024-02-21T10:58:52;100058.09;;;13.69;48.60
71795;BME280;59641;45.188;5.712;2024-02-21T11:01:18;100043.72;;;13.75;48.66
71795;BME280;59641;45.188;5.712;2024-02-21T11:03:45;100027.66;;;13.80;48.23
71795;BME280;59641;45.188;5.712;2024-02-21T11:06:12;100023.47;;;13.84;48.43
71795;BME280;59641;45.188;5.712;2024-02-21T11:08:39;100017.41;;;13.89;48.25
71795;BME280;59641;45.188;5.712;2024-02-21T11:11:05;100008.66;;;13.94;48.11
71795;BME280;59641;45.188;5.712;2024-02-21T11:13:37;100002.34;;;14.00;48.18
71795;BME280;59641;45.188;5.712;2024-02-21T11:16:07;99996.84;;;14.06;48.14
71795;BME280;59641;45.188;5.712;2024-02-21T11:18:34;99991.38;;;14.13;47.91
71795;BME280;59641;45.188;5.712;2024-02-21T11:20:59;99983.19;;;14.20;48.03
71795;BME280;59641;45.188;5.712;2024-02-21T11:23:26;99975.44;;;14.23;48.17
71795;BME280;59641;45.188;5.712;2024-02-21T11:25:51;99967.25;;;14.30;47.93
71795;BME280;59641;45.188;5.712;2024-02-21T11:28:25;99957.19;;;14.37;47.78
71795;BME280;59641;45.188;5.712;2024-02-21T11:30:50;99949.47;;;14.41;47.78
71795;BME280;59641;45.188;5.712;2024-02-21T11:33:16;99931.75;;;14.45;47.54
71795;BME280;59641;45.188;5.712;2024-02-21T11:35:42;99921.31;;;14.48;47.69
71795;BME280;59641;45.188;5.712;2024-02-21T11:38:09;99908.97;;;14.53;47.79
71795;BME280;59641;45.188;5.712;2024-02-21T11:40:35;99900.47;;;14.56;47.46
71795;BME280;59641;45.188;5.712;2024-02-21T11:43:00;99892.47;;;14.61;47.48
71795;BME280;59641;45.188;5.712;2024-02-21T11:45:26;99886.38;;;14.65;47.69
71795;BME280;59641;45.188;5.712;2024-02-21T11:47:52;99883.56;;;14.72;47.17
71795;BME280;59641;45.188;5.712;2024-02-21T11:50:17;99875.00;;;14.75;46.99
71795;BME280;59641;45.188;5.712;2024-02-21T11:52:44;99866.41;;;14.78;47.24
71795;BME280;59641;45.188;5.712;2024-02-21T11:55:11;99875.69;;;14.82;47.13
71795;BME280;59641;45.188;5.712;2024-02-21T11:57:37;99858.78;;;14.87;47.26
71795;BME280;59641;45.188;5.712;2024-02-21T12:00:20;99852.41;;;14.93;46.99
71795;BME280;59641;45.188;5.712;2024-02-21T12:02:46;99844.09;;;14.95;46.99
71795;BME280;59641;45.188;5.712;2024-02-21T12:05:11;99837.59;;;14.96;46.73
71795;BME280;59641;45.188;5.712;2024-02-21T12:07:37;99832.56;;;14.99;46.75
71795;BME280;59641;45.188;5.712;2024-02-21T12:10:10;99825.28;;;15.00;46.60
71795;BME280;59641;45.188;5.712;2024-02-21T12:12:36;99815.06;;;15.02;46.79
71795;BME280;59641;45.188;5.712;2024-02-21T12:15:03;99809.16;;;15.05;46.69
71795;BME280;59641;45.188;5.712;2024-02-21T12:17:39;99795.16;;;15.08;46.82
71795;BME280;59641;45.188;5.712;2024-02-21T12:20:05;99789.31;;;15.11;46.32
71795;BME280;59641;45.188;5.712;2024-02-21T12:22:35;99786.34;;;15.12;46.31
71795;BME280;59641;45.188;5.712;2024-02-21T12:25:03;99775.66;;;15.18;46.56
71795;BME280;59641;45.188;5.712;2024-02-21T12:27:29;99766.25;;;15.20;46.50
71795;BME280;59641;45.188;5.712;2024-02-21T12:29:55;99764.69;;;15.24;46.21
71795;BME280;59641;45.188;5.712;2024-02-21T12:32:20;99754.44;;;15.26;46.43
71795;BME280;59641;45.188;5.712;2024-02-21T12:34:45;99747.50;;;15.30;46.62
71795;BME280;59641;45.188;5.712;2024-02-21T12:37:11;99745.13;;;15.34;46.76
71795;BME280;59641;45.188;5.712;2024-02-21T12:39:38;99740.66;;;15.40;46.58
71795;BME280;59641;45.188;5.712;2024-02-21T12:42:04;99742.63;;;15.44;46.67
71795;BME280;59641;45.188;5.712;2024-02-21T12:44:29;99731.66;;;15.51;46.35
71795;BME280;59641;45.188;5.712;2024-02-21T12:46:54;99716.00;;;15.53;46.53
71795;BME280;59641;45.188;5.712;2024-02-21T12:49:20;99710.94;;;15.57;46.12
71795;BME280;59641;45.188;5.712;2024-02-21T12:51:45;99706.66;;;15.61;46.11